createdAt,value
2023-04-18T00:00:02.858Z,82.6759
2023-04-18T00:01:03.924Z,82.6216
2023-04-18T00:02:05.116Z,82.5611
2023-04-18T00:03:06.695Z,82.5979
2023-04-18T00:04:08.528Z,82.5896
2023-04-18T00:05:09.883Z,82.5155
2023-04-18T00:06:11.000Z,82.4350
2023-04-18T00:07:12.160Z,82.8892
2023-04-18T00:08:13.294Z,82.7555
2023-04-18T00:09:14.560Z,82.7620
2023-04-18T00:10:15.669Z,82.0855
2023-04-18T00:11:16.747Z,82.0023
2023-04-18T00:12:17.831Z,82.1119
2023-04-18T00:13:18.972Z,82.5319
2023-04-18T00:14:20.067Z,82.5453
2023-04-18T00:15:21.178Z,82.1380
2023-04-18T00:16:22.314Z,82.2730
2023-04-18T00:17:23.505Z,82.2765
2023-04-18T00:18:24.622Z,82.0326
2023-04-18T00:19:25.739Z,81.7712
2023-04-18T00:20:26.854Z,81.6671
2023-04-18T00:21:27.951Z,82.1160
2023-04-18T00:22:29.078Z,81.6214
2023-04-18T00:23:30.233Z,81.5013
2023-04-18T00:24:31.319Z,81.5427
2023-04-18T00:25:32.447Z,81.6822
2023-04-18T00:26:33.517Z,82.1030
2023-04-18T00:27:34.695Z,81.7739
2023-04-18T00:28:35.764Z,81.6406
2023-04-18T00:29:36.928Z,81.4838
2023-04-18T00:30:38.092Z,81.4082
2023-04-18T00:31:39.181Z,81.3985
2023-04-18T00:32:40.314Z,81.3854
2023-04-18T00:33:41.387Z,81.4548
2023-04-18T00:34:42.551Z,81.4159
2023-04-18T00:35:43.678Z,81.5975
2023-04-18T00:36:44.763Z,81.5536
2023-04-18T00:37:45.841Z,81.5674
2023-04-18T00:38:46.958Z,81.7530
2023-04-18T00:39:48.094Z,81.6344
2023-04-18T00:40:49.246Z,81.5219
2023-04-18T00:41:50.364Z,81.6139
2023-04-18T00:42:51.431Z,81.5220
2023-04-18T00:43:52.705Z,81.5967
2023-04-18T00:44:53.736Z,81.7448
2023-04-18T00:45:54.861Z,81.9543
2023-04-18T00:46:55.940Z,81.9772
2023-04-18T00:47:57.012Z,81.9912
2023-04-18T00:48:58.095Z,81.9148
2023-04-18T00:49:59.227Z,81.9374
2023-04-18T00:51:00.303Z,82.0023
2023-04-18T00:52:01.393Z,82.1495
2023-04-18T00:53:02.507Z,82.0594
2023-04-18T00:54:03.632Z,81.9533
2023-04-18T00:55:04.714Z,81.9331
2023-04-18T00:56:05.833Z,81.8302
2023-04-18T00:57:06.915Z,81.8103
2023-04-18T00:58:08.013Z,81.9191
2023-04-18T00:59:09.071Z,81.9553
2023-04-18T01:00:10.194Z,82.0499
2023-04-18T01:01:11.341Z,82.0848
2023-04-18T01:02:12.503Z,82.0367
2023-04-18T01:03:13.766Z,81.9886
2023-04-18T01:04:15.137Z,81.9624
2023-04-18T01:05:16.646Z,82.3038
2023-04-18T01:06:17.770Z,82.4566
2023-04-18T01:07:18.891Z,81.8885
2023-04-18T01:08:19.965Z,81.8925
2023-04-18T01:09:21.087Z,81.7075
2023-04-18T01:10:22.223Z,81.7641
2023-04-18T01:11:23.510Z,81.6433
2023-04-18T01:12:24.584Z,81.6787
2023-04-18T01:13:25.724Z,81.5719
2023-04-18T01:14:26.773Z,81.6947
2023-04-18T01:15:27.921Z,81.6688
2023-04-18T01:16:29.032Z,81.7407
2023-04-18T01:17:30.219Z,81.5723
2023-04-18T01:18:31.362Z,81.7048
2023-04-18T01:19:32.717Z,81.5879
2023-04-18T01:20:33.873Z,81.5441
2023-04-18T01:21:35.023Z,81.6930
2023-04-18T01:22:36.166Z,81.6429
2023-04-18T01:23:37.283Z,81.6295
2023-04-18T01:24:38.377Z,81.7243
2023-04-18T01:25:39.626Z,81.6381
2023-04-18T01:26:40.665Z,81.6512
2023-04-18T01:27:41.824Z,81.6863
2023-04-18T01:28:42.925Z,81.7007
2023-04-18T01:29:44.016Z,81.7341
2023-04-18T01:30:45.224Z,81.7690
2023-04-18T01:31:46.431Z,82.0817
2023-04-18T01:32:47.573Z,81.7990
2023-04-18T01:33:48.669Z,81.9096
2023-04-18T01:34:49.765Z,81.9768
2023-04-18T01:35:51.099Z,82.0218
2023-04-18T01:36:52.150Z,82.0569
2023-04-18T01:37:53.215Z,82.0224
2023-04-18T01:38:54.348Z,82.0555
2023-04-18T01:39:55.510Z,82.1104
2023-04-18T01:40:56.603Z,82.1312
2023-04-18T01:41:57.862Z,82.0487
2023-04-18T01:42:58.942Z,81.8783
2023-04-18T01:44:00.016Z,81.9695
2023-04-18T01:45:01.140Z,81.8523
2023-04-18T01:46:02.301Z,81.9638
2023-04-18T01:47:03.440Z,81.9788
2023-04-18T01:48:04.552Z,82.0209
2023-04-18T01:49:05.640Z,82.2003
2023-04-18T01:50:06.743Z,82.3324
2023-04-18T01:51:07.852Z,82.7765
2023-04-18T01:52:09.020Z,82.3054
2023-04-18T01:53:10.465Z,82.1543
2023-04-18T01:54:11.823Z,82.0574
2023-04-18T01:55:13.442Z,82.1793
2023-04-18T01:56:14.535Z,82.0829
2023-04-18T01:57:15.646Z,81.9632
2023-04-18T01:58:16.748Z,81.9242
2023-04-18T01:59:17.955Z,82.1316
2023-04-18T02:00:19.109Z,82.1990
2023-04-18T02:01:20.340Z,82.1973
2023-04-18T02:02:21.768Z,82.1057
2023-04-18T02:03:23.273Z,82.3452
2023-04-18T02:04:24.484Z,82.1345
2023-04-18T02:05:25.601Z,82.2181
2023-04-18T02:06:26.995Z,82.2333
2023-04-18T02:07:28.151Z,82.3179
2023-04-18T02:08:29.272Z,82.2134
2023-04-18T02:09:30.388Z,82.3509
2023-04-18T02:10:31.523Z,82.4993
2023-04-18T02:11:32.673Z,82.6267
2023-04-18T02:12:33.753Z,82.5835
2023-04-18T02:13:35.033Z,82.6401
2023-04-18T02:14:36.385Z,83.0038
2023-04-18T02:15:37.549Z,82.6147
2023-04-18T02:16:38.708Z,82.6949
2023-04-18T02:17:39.799Z,82.6630
2023-04-18T02:18:40.960Z,82.7263
2023-04-18T02:19:42.086Z,82.8571
2023-04-18T02:20:43.212Z,82.6924
2023-04-18T02:21:44.324Z,82.6050
2023-04-18T02:22:45.481Z,82.9510
2023-04-18T02:23:46.600Z,83.1335
2023-04-18T02:24:47.707Z,83.0473
2023-04-18T02:25:48.804Z,83.2223
2023-04-18T02:26:49.927Z,83.4556
2023-04-18T02:27:51.034Z,83.4850
2023-04-18T02:28:52.266Z,83.5114
2023-04-18T02:29:53.442Z,83.5304
2023-04-18T02:30:54.576Z,83.3836
2023-04-18T02:31:55.785Z,83.2941
2023-04-18T02:32:56.977Z,83.2121
2023-04-18T02:33:59.219Z,83.3269
2023-04-18T02:35:00.317Z,83.3283
2023-04-18T02:36:01.426Z,83.2423
2023-04-18T02:37:02.576Z,83.2428
2023-04-18T02:38:03.807Z,83.2850
2023-04-18T02:39:04.936Z,83.2415
2023-04-18T02:40:06.061Z,83.1418
2023-04-18T02:41:07.203Z,83.1251
2023-04-18T02:42:08.335Z,83.2084
2023-04-18T02:43:09.510Z,83.2772
2023-04-18T02:44:10.626Z,83.2828
2023-04-18T02:45:11.856Z,83.4450
2023-04-18T02:46:13.041Z,83.4499
2023-04-18T02:47:14.188Z,83.3354
2023-04-18T02:48:15.424Z,83.3488
2023-04-18T02:49:16.595Z,83.4382
2023-04-18T02:50:17.673Z,83.4062
2023-04-18T02:51:18.908Z,83.4134
2023-04-18T02:52:20.047Z,83.3181
2023-04-18T02:53:21.211Z,83.3738
2023-04-18T02:54:22.307Z,83.3234
2023-04-18T02:55:23.455Z,83.4468
2023-04-18T02:56:24.539Z,83.2672
2023-04-18T02:57:25.643Z,83.2490
2023-04-18T02:58:26.784Z,83.2232
2023-04-18T02:59:27.924Z,83.3635
2023-04-18T03:00:29.047Z,83.7185
2023-04-18T03:01:30.199Z,83.8408
2023-04-18T03:02:31.454Z,83.7776
2023-04-18T03:03:32.742Z,83.7720
2023-04-18T03:04:33.945Z,83.7629
2023-04-18T03:05:35.159Z,83.7376
2023-04-18T03:06:36.288Z,83.8125
2023-04-18T03:07:37.428Z,83.6458
2023-04-18T03:08:38.533Z,83.6793
2023-04-18T03:09:39.674Z,83.8440
2023-04-18T03:10:40.812Z,83.9187
2023-04-18T03:11:42.104Z,83.8812
2023-04-18T03:12:43.249Z,83.8704
2023-04-18T03:13:44.410Z,84.0409
2023-04-18T03:14:45.548Z,84.0210
2023-04-18T03:15:46.708Z,83.9654
2023-04-18T03:16:47.812Z,84.0328
2023-04-18T03:17:49.136Z,84.0572
2023-04-18T03:18:50.280Z,84.1044
2023-04-18T03:19:51.459Z,83.9817
2023-04-18T03:20:52.653Z,83.8666
2023-04-18T03:21:53.798Z,83.8295
2023-04-18T03:22:55.022Z,84.0314
2023-04-18T03:23:56.120Z,84.0915
2023-04-18T03:24:57.230Z,83.9216
2023-04-18T03:25:58.346Z,84.0764
2023-04-18T03:26:59.532Z,84.0561
2023-04-18T03:28:00.706Z,83.9914
2023-04-18T03:29:01.945Z,83.9528
2023-04-18T03:30:03.139Z,83.9590
2023-04-18T03:31:04.389Z,83.9977
2023-04-18T03:32:05.533Z,84.0980
2023-04-18T03:33:06.625Z,84.0134
2023-04-18T03:34:07.800Z,83.8489
2023-04-18T03:35:08.967Z,83.6633
2023-04-18T03:36:10.095Z,83.8864
2023-04-18T03:37:11.204Z,83.9760
2023-04-18T03:38:12.375Z,83.9018
2023-04-18T03:39:13.485Z,83.8727
2023-04-18T03:40:14.640Z,83.9013
2023-04-18T03:41:15.765Z,83.8771
2023-04-18T03:42:16.923Z,83.8981
2023-04-18T03:43:18.076Z,83.9906
2023-04-18T03:44:19.250Z,83.9198
2023-04-18T03:45:20.425Z,83.9581
2023-04-18T03:46:21.616Z,84.0444
2023-04-18T03:47:22.749Z,83.9971
2023-04-18T03:48:23.915Z,83.8916
2023-04-18T03:49:25.036Z,83.6862
2023-04-18T03:50:26.265Z,83.6701
2023-04-18T03:51:27.363Z,83.8061
2023-04-18T03:52:29.830Z,83.6556
2023-04-18T03:53:28.775Z,83.5551
2023-04-18T03:54:29.916Z,83.6328
2023-04-18T03:55:31.065Z,83.6354
2023-04-18T03:56:32.182Z,83.4761
2023-04-18T03:57:33.277Z,83.3264
2023-04-18T03:58:34.403Z,83.1668
2023-04-18T03:59:35.529Z,83.4026
2023-04-18T04:00:36.694Z,83.3865
2023-04-18T04:01:37.909Z,83.4521
2023-04-18T04:02:39.149Z,83.5205
2023-04-18T04:03:40.409Z,83.4877
2023-04-18T04:04:41.913Z,83.5249
2023-04-18T04:05:43.044Z,83.5125
2023-04-18T04:06:44.184Z,83.5361
2023-04-18T04:07:45.378Z,83.7226
2023-04-18T04:08:46.565Z,83.6414
2023-04-18T04:09:47.681Z,83.5309
2023-04-18T04:10:48.843Z,83.6714
2023-04-18T04:11:50.008Z,83.7738
2023-04-18T04:12:51.131Z,83.6834
2023-04-18T04:13:52.282Z,83.7190
2023-04-18T04:14:53.457Z,83.7945
2023-04-18T04:15:54.620Z,83.6531
2023-04-18T04:16:55.781Z,83.7603
2023-04-18T04:17:57.080Z,83.7095
2023-04-18T04:18:58.261Z,83.7758
2023-04-18T04:19:59.372Z,83.8337
2023-04-18T04:21:00.531Z,83.7270
2023-04-18T04:22:01.610Z,83.7375
2023-04-18T04:23:02.796Z,83.7375
2023-04-18T04:24:03.952Z,83.6361
2023-04-18T04:25:05.083Z,83.6700
2023-04-18T04:26:06.202Z,83.6256
2023-04-18T04:27:07.377Z,83.5724
2023-04-18T04:28:08.591Z,83.8200
2023-04-18T04:29:09.716Z,83.6052
2023-04-18T04:30:13.308Z,83.5684
2023-04-18T04:31:12.133Z,83.5509
2023-04-18T04:32:13.324Z,83.5286
2023-04-18T04:33:14.535Z,83.5331
2023-04-18T04:34:15.958Z,83.4110
2023-04-18T04:35:17.311Z,83.4793
2023-04-18T04:36:19.006Z,83.5203
2023-04-18T04:37:20.245Z,83.6557
2023-04-18T04:38:21.440Z,83.6584
2023-04-18T04:39:22.618Z,83.8866
2023-04-18T04:40:23.733Z,83.9145
2023-04-18T04:41:24.910Z,83.8270
2023-04-18T04:42:26.052Z,83.6990
2023-04-18T04:43:27.208Z,83.7251
2023-04-18T04:44:28.364Z,83.7350
2023-04-18T04:45:29.569Z,83.7110
2023-04-18T04:46:30.684Z,83.7175
2023-04-18T04:47:31.947Z,83.9973
2023-04-18T04:48:33.212Z,83.8084
2023-04-18T04:49:34.412Z,83.6695
2023-04-18T04:50:35.583Z,83.7276
2023-04-18T04:51:36.804Z,83.5495
2023-04-18T04:52:37.990Z,83.7334
2023-04-18T04:53:39.376Z,83.6003
2023-04-18T04:54:40.800Z,83.8027
2023-04-18T04:55:42.007Z,83.8429
2023-04-18T04:56:43.169Z,83.8169
2023-04-18T04:57:44.322Z,83.8511
2023-04-18T04:58:45.445Z,83.9715
2023-04-18T04:59:46.571Z,83.9988
2023-04-18T05:00:47.733Z,84.0049
2023-04-18T05:01:48.994Z,83.9261
2023-04-18T05:02:50.520Z,83.8747
2023-04-18T05:03:51.984Z,83.8177
2023-04-18T05:04:53.188Z,83.8563
2023-04-18T05:05:54.361Z,83.8565
2023-04-18T05:06:55.440Z,83.8243
2023-04-18T05:07:56.593Z,83.9945
2023-04-18T05:08:57.819Z,84.1201
2023-04-18T05:09:58.985Z,84.0160
2023-04-18T05:11:00.168Z,83.8006
2023-04-18T05:12:01.421Z,83.7296
2023-04-18T05:13:02.588Z,83.7477
2023-04-18T05:14:03.781Z,83.9031
2023-04-18T05:15:04.934Z,84.0640
2023-04-18T05:16:06.154Z,84.0942
2023-04-18T05:17:07.354Z,84.1842
2023-04-18T05:18:08.632Z,84.2092
2023-04-18T05:19:09.819Z,84.1508
2023-04-18T05:20:10.956Z,84.1484
2023-04-18T05:21:12.182Z,83.9736
2023-04-18T05:22:13.320Z,83.8140
2023-04-18T05:23:14.486Z,83.8412
2023-04-18T05:24:15.955Z,83.7864
2023-04-18T05:25:17.374Z,83.8384
2023-04-18T05:26:18.502Z,84.0038
2023-04-18T05:27:19.637Z,83.8343
2023-04-18T05:28:20.749Z,83.8303
2023-04-18T05:29:21.950Z,83.8355
2023-04-18T05:30:23.050Z,83.8418
2023-04-18T05:31:24.194Z,83.6867
2023-04-18T05:32:25.366Z,83.5938
2023-04-18T05:33:26.466Z,83.6370
2023-04-18T05:34:27.651Z,83.6265
2023-04-18T05:35:28.769Z,83.4964
2023-04-18T05:36:29.876Z,83.3594
2023-04-18T05:37:31.047Z,83.5225
2023-04-18T05:38:32.216Z,83.5274
2023-04-18T05:39:33.373Z,83.5704
2023-04-18T05:40:34.471Z,83.7168
2023-04-18T05:41:35.645Z,83.6815
2023-04-18T05:42:36.762Z,83.8449
2023-04-18T05:43:38.001Z,83.7740
2023-04-18T05:44:39.097Z,83.6232
2023-04-18T05:45:40.277Z,83.6693
2023-04-18T05:46:41.524Z,83.7960
2023-04-18T05:47:42.740Z,83.9856
2023-04-18T05:48:43.913Z,83.9492
2023-04-18T05:49:45.029Z,83.8647
2023-04-18T05:50:46.228Z,83.6649
2023-04-18T05:51:47.367Z,83.5765
2023-04-18T05:52:48.473Z,83.6002
2023-04-18T05:53:49.640Z,83.5368
2023-04-18T05:54:50.766Z,83.4537
2023-04-18T05:55:51.889Z,83.5373
2023-04-18T05:56:53.048Z,83.6815
2023-04-18T05:57:54.219Z,83.5382
2023-04-18T05:58:55.344Z,83.5398
2023-04-18T05:59:56.487Z,83.6251
2023-04-18T06:00:57.620Z,83.6547
2023-04-18T06:01:58.805Z,83.4517
2023-04-18T06:03:00.150Z,83.7202
2023-04-18T06:04:01.814Z,83.8926
2023-04-18T06:05:03.319Z,83.6866
2023-04-18T06:06:04.762Z,83.8026
2023-04-18T06:07:05.909Z,83.9414
2023-04-18T06:08:07.151Z,83.7904
2023-04-18T06:09:08.244Z,83.7855
2023-04-18T06:10:09.386Z,83.6614
2023-04-18T06:11:10.522Z,83.7286
2023-04-18T06:12:11.874Z,84.0428
2023-04-18T06:13:13.175Z,83.8426
2023-04-18T06:14:14.442Z,83.8000
2023-04-18T06:15:15.682Z,84.0150
2023-04-18T06:16:16.957Z,83.9791
2023-04-18T06:17:18.154Z,83.9728
2023-04-18T06:18:19.319Z,83.8348
2023-04-18T06:19:20.546Z,83.8373
2023-04-18T06:20:21.695Z,83.6758
2023-04-18T06:21:22.880Z,83.6200
2023-04-18T06:22:23.995Z,83.6057
2023-04-18T06:23:25.185Z,83.4645
2023-04-18T06:24:26.380Z,83.3528
2023-04-18T06:25:27.536Z,83.3961
2023-04-18T06:26:28.748Z,83.3313
2023-04-18T06:27:31.922Z,83.4698
2023-04-18T06:28:30.627Z,83.3417
2023-04-18T06:29:31.780Z,83.2603
2023-04-18T06:30:32.913Z,83.3449
2023-04-18T06:31:34.054Z,83.3263
2023-04-18T06:32:35.304Z,83.3476
2023-04-18T06:33:36.700Z,83.1915
2023-04-18T06:34:37.870Z,83.3511
2023-04-18T06:35:39.079Z,83.3030
2023-04-18T06:36:40.209Z,83.0818
2023-04-18T06:37:41.348Z,83.0970
2023-04-18T06:38:42.478Z,83.2222
2023-04-18T06:39:43.605Z,83.1552
2023-04-18T06:40:44.806Z,83.1197
2023-04-18T06:41:45.929Z,83.1536
2023-04-18T06:42:47.084Z,83.4454
2023-04-18T06:44:02.109Z,83.5443
2023-04-18T06:44:50.029Z,83.6253
2023-04-18T06:45:51.207Z,83.6491
2023-04-18T06:46:52.377Z,83.3608
2023-04-18T06:47:53.560Z,83.5003
2023-04-18T06:48:54.703Z,83.5159
2023-04-18T06:49:55.861Z,83.7117
2023-04-18T06:50:56.992Z,83.5707
2023-04-18T06:51:58.105Z,83.6083
2023-04-18T06:52:59.352Z,83.6000
2023-04-18T06:54:00.466Z,83.5804
2023-04-18T06:55:01.670Z,83.4167
2023-04-18T06:56:02.916Z,83.5036
2023-04-18T06:57:04.092Z,83.7698
2023-04-18T06:58:05.263Z,83.6341
2023-04-18T06:59:06.501Z,83.7028
2023-04-18T07:00:07.687Z,83.6070
2023-04-18T07:01:08.925Z,83.4371
2023-04-18T07:02:10.379Z,83.6306
2023-04-18T07:03:11.920Z,83.4787
2023-04-18T07:04:13.655Z,83.5124
2023-04-18T07:05:15.395Z,83.5879
2023-04-18T07:06:16.576Z,83.7639
2023-04-18T07:07:17.766Z,83.8568
2023-04-18T07:08:18.938Z,83.9085
2023-04-18T07:09:20.179Z,83.7981
2023-04-18T07:10:21.354Z,83.8372
2023-04-18T07:11:22.521Z,83.7093
2023-04-18T07:12:23.743Z,83.8029
2023-04-18T07:13:24.881Z,83.6107
2023-04-18T07:14:26.118Z,83.3401
2023-04-18T07:15:27.305Z,83.3610
2023-04-18T07:16:28.552Z,83.3865
2023-04-18T07:17:29.766Z,83.3492
2023-04-18T07:18:37.864Z,83.0393
2023-04-18T07:19:32.796Z,83.4194
2023-04-18T07:20:34.032Z,83.3863
2023-04-18T07:21:35.233Z,83.2178
2023-04-18T07:22:36.419Z,83.2240
2023-04-18T07:23:37.596Z,83.0058
2023-04-18T07:24:38.796Z,83.0905
2023-04-18T07:25:40.037Z,83.0397
2023-04-18T07:26:41.206Z,82.8516
2023-04-18T07:27:42.404Z,82.9810
2023-04-18T07:28:43.632Z,82.9266
2023-04-18T07:29:44.782Z,82.7097
2023-04-18T07:30:45.949Z,82.7602
2023-04-18T07:31:47.112Z,82.7004
2023-04-18T07:32:48.331Z,82.9031
2023-04-18T07:33:49.487Z,83.0468
2023-04-18T07:34:50.693Z,82.7405
2023-04-18T07:35:51.847Z,82.7828
2023-04-18T07:36:53.044Z,82.9907
2023-04-18T07:37:54.219Z,83.0328
2023-04-18T07:38:55.381Z,83.1197
2023-04-18T07:39:56.578Z,82.9218
2023-04-18T07:40:57.725Z,82.6723
2023-04-18T07:41:58.942Z,82.2958
2023-04-18T07:43:00.146Z,82.4576
2023-04-18T07:44:01.308Z,82.7068
2023-04-18T07:45:02.450Z,82.4501
2023-04-18T07:46:03.679Z,82.2422
2023-04-18T07:47:04.881Z,82.3462
2023-04-18T07:48:06.060Z,82.2366
2023-04-18T07:49:07.186Z,81.9569
2023-04-18T07:50:08.369Z,82.1297
2023-04-18T07:51:09.569Z,82.3304
2023-04-18T07:52:10.753Z,82.5136
2023-04-18T07:53:11.931Z,82.3263
2023-04-18T07:54:13.139Z,82.1337
2023-04-18T07:55:14.304Z,81.7101
2023-04-18T07:56:15.536Z,81.7086
2023-04-18T07:57:16.626Z,81.5822
2023-04-18T07:58:17.788Z,81.7079
2023-04-18T07:59:18.986Z,81.4009
2023-04-18T08:00:20.118Z,81.4600
2023-04-18T08:01:21.352Z,81.2200
2023-04-18T08:02:22.596Z,80.7505
2023-04-18T08:03:24.035Z,80.1837
2023-04-18T08:04:27.575Z,80.1881
2023-04-18T08:05:27.770Z,80.2589
2023-04-18T08:06:29.024Z,80.2500
2023-04-18T08:07:30.176Z,79.7318
2023-04-18T08:08:31.322Z,80.0568
2023-04-18T08:09:32.483Z,80.1395
2023-04-18T08:10:33.714Z,79.7084
2023-04-18T08:11:35.004Z,79.2652
2023-04-18T08:12:36.157Z,78.8912
2023-04-18T08:13:37.343Z,78.8600
2023-04-18T08:14:38.523Z,78.9441
2023-04-18T08:15:39.811Z,79.1338
2023-04-18T08:16:41.036Z,79.1003
2023-04-18T08:17:42.315Z,78.5247
2023-04-18T08:18:43.505Z,78.0738
2023-04-18T08:19:44.718Z,78.5450
2023-04-18T08:20:45.886Z,79.0909
2023-04-18T08:21:47.028Z,78.9336
2023-04-18T08:23:04.843Z,78.7758
2023-04-18T08:23:49.990Z,78.0583
2023-04-18T08:25:03.860Z,78.0902
2023-04-18T08:25:52.973Z,78.7974
2023-04-18T08:26:54.236Z,78.7493
2023-04-18T08:27:55.426Z,79.2465
2023-04-18T08:28:56.597Z,79.5030
2023-04-18T08:29:57.771Z,79.3102
2023-04-18T08:30:58.939Z,79.0458
2023-04-18T08:32:00.162Z,79.6251
2023-04-18T08:33:01.581Z,80.0417
2023-04-18T08:34:04.528Z,79.7332
2023-04-18T08:35:03.782Z,79.7394
2023-04-18T08:36:04.925Z,79.4306
2023-04-18T08:37:06.073Z,79.4747
2023-04-18T08:38:07.325Z,79.8112
2023-04-18T08:39:08.514Z,79.8105
2023-04-18T08:40:09.723Z,79.7209
2023-04-18T08:41:10.866Z,79.5353
2023-04-18T08:42:12.069Z,79.4023
2023-04-18T08:43:13.258Z,79.5262
2023-04-18T08:44:14.602Z,79.5889
2023-04-18T08:45:16.004Z,79.4176
2023-04-18T08:46:17.242Z,79.4369
2023-04-18T08:47:18.460Z,79.2457
2023-04-18T08:48:19.840Z,78.9530
2023-04-18T08:49:21.036Z,78.9570
2023-04-18T08:50:22.200Z,79.0148
2023-04-18T08:51:23.339Z,78.9019
2023-04-18T08:52:24.547Z,78.6251
2023-04-18T08:53:25.725Z,78.2392
2023-04-18T08:54:27.488Z,77.6539
2023-04-18T08:55:28.813Z,77.8070
2023-04-18T08:56:29.990Z,77.8686
2023-04-18T08:57:31.211Z,77.7163
2023-04-18T08:58:32.447Z,77.7251
2023-04-18T08:59:33.633Z,77.6185
2023-04-18T09:00:34.739Z,77.9296
2023-04-18T09:01:35.942Z,78.1754
2023-04-18T09:02:37.195Z,78.6398
2023-04-18T09:03:38.567Z,78.5355
2023-04-18T09:04:39.858Z,78.4141
2023-04-18T09:05:41.000Z,78.0017
2023-04-18T09:06:42.166Z,77.8067
2023-04-18T09:07:43.321Z,77.6906
2023-04-18T09:08:44.519Z,77.6790
2023-04-18T09:09:45.662Z,77.4175
2023-04-18T09:10:46.922Z,77.1909
2023-04-18T09:11:48.085Z,77.2094
2023-04-18T09:12:49.302Z,77.3912
2023-04-18T09:13:50.542Z,76.7891
2023-04-18T09:14:51.683Z,77.0669
2023-04-18T09:15:52.917Z,76.8576
2023-04-18T09:16:54.068Z,76.8906
2023-04-18T09:17:55.291Z,76.5610
2023-04-18T09:18:56.459Z,76.7606
2023-04-18T09:19:57.590Z,76.5076
2023-04-18T09:20:58.784Z,77.0304
2023-04-18T09:21:59.946Z,77.3587
2023-04-18T09:23:01.109Z,77.2956
2023-04-18T09:24:02.297Z,77.2645
2023-04-18T09:25:03.483Z,76.5910
2023-04-18T09:26:04.663Z,76.7528
2023-04-18T09:27:05.794Z,76.8462
2023-04-18T09:28:06.951Z,76.5866
2023-04-18T09:29:08.150Z,76.5128
2023-04-18T09:30:09.325Z,76.3104
2023-04-18T09:31:10.474Z,76.0932
2023-04-18T09:32:11.608Z,75.8614
2023-04-18T09:33:12.734Z,75.7911
2023-04-18T09:34:14.134Z,75.3313
2023-04-18T09:35:15.670Z,75.1721
2023-04-18T09:36:16.887Z,75.1839
2023-04-18T09:37:17.993Z,75.6951
2023-04-18T09:38:19.187Z,75.7232
2023-04-18T09:39:20.297Z,75.7110
2023-04-18T09:40:21.439Z,75.7407
2023-04-18T09:41:22.575Z,75.4207
2023-04-18T09:42:24.083Z,75.6867
2023-04-18T09:43:25.776Z,75.7914
2023-04-18T09:44:26.937Z,75.2302
2023-04-18T09:45:28.198Z,74.9854
2023-04-18T09:46:29.372Z,75.1686
2023-04-18T09:47:30.540Z,75.3153
2023-04-18T09:48:31.675Z,75.3501
2023-04-18T09:49:32.845Z,75.3163
2023-04-18T09:50:34.004Z,75.7850
2023-04-18T09:51:35.164Z,76.2785
2023-04-18T09:52:36.283Z,76.4290
2023-04-18T09:53:37.417Z,76.7772
2023-04-18T09:54:38.551Z,76.6678
2023-04-18T09:55:39.714Z,75.9035
2023-04-18T09:56:40.841Z,75.6628
2023-04-18T09:57:41.967Z,75.7737
2023-04-18T09:58:43.105Z,76.1097
2023-04-18T09:59:44.328Z,76.0792
2023-04-18T10:00:46.901Z,75.9687
2023-04-18T10:01:45.829Z,75.0199
2023-04-18T10:02:47.033Z,74.5606
2023-04-18T10:03:48.471Z,74.3320
2023-04-18T10:04:50.035Z,73.6906
2023-04-18T10:05:51.312Z,73.0700
2023-04-18T10:06:52.476Z,73.4110
2023-04-18T10:07:53.607Z,72.9169
2023-04-18T10:08:54.735Z,73.0681
2023-04-18T10:09:55.879Z,73.1422
2023-04-18T10:10:56.990Z,73.5316
2023-04-18T10:11:58.113Z,73.9225
2023-04-18T10:12:59.217Z,73.3449
2023-04-18T10:14:00.328Z,73.8177
2023-04-18T10:15:02.150Z,74.0345
2023-04-18T10:16:03.288Z,73.5564
2023-04-18T10:17:04.410Z,72.9113
2023-04-18T10:18:06.446Z,73.4069
2023-04-18T10:19:07.963Z,73.1217
2023-04-18T10:20:09.111Z,73.8949
2023-04-18T10:21:10.229Z,74.2377
2023-04-18T10:22:11.410Z,74.0480
2023-04-18T10:23:12.625Z,73.4285
2023-04-18T10:24:13.874Z,73.2199
2023-04-18T10:25:15.499Z,72.6350
2023-04-18T10:26:16.814Z,71.9694
2023-04-18T10:27:18.030Z,72.8469
2023-04-18T10:28:19.161Z,73.5756
2023-04-18T10:29:20.298Z,73.3826
2023-04-18T10:30:21.534Z,73.4126
2023-04-18T10:31:22.857Z,73.9508
2023-04-18T10:32:24.129Z,74.6449
2023-04-18T10:33:30.894Z,75.0593
2023-04-18T10:34:26.945Z,74.6888
2023-04-18T10:35:28.065Z,74.7744
2023-04-18T10:36:29.275Z,74.8545
2023-04-18T10:37:30.308Z,74.4463
2023-04-18T10:38:31.418Z,74.2059
2023-04-18T10:39:32.556Z,74.6189
2023-04-18T10:40:33.733Z,74.6503
2023-04-18T10:41:34.843Z,74.3373
2023-04-18T10:42:35.964Z,73.8545
2023-04-18T10:43:37.117Z,73.6273
2023-04-18T10:44:38.280Z,74.2892
2023-04-18T10:45:39.411Z,74.4106
2023-04-18T10:46:40.597Z,73.8119
2023-04-18T10:47:41.908Z,73.8738
2023-04-18T10:48:43.133Z,73.7620
2023-04-18T10:49:44.268Z,73.7443
2023-04-18T10:50:45.373Z,72.5572
2023-04-18T10:51:46.471Z,72.9176
2023-04-18T10:52:47.635Z,71.9512
2023-04-18T10:53:48.760Z,72.5643
2023-04-18T10:54:49.920Z,72.8327
2023-04-18T10:55:51.052Z,73.1234
2023-04-18T10:56:52.194Z,73.3753
2023-04-18T10:57:53.302Z,73.4832
2023-04-18T10:58:54.484Z,73.5876
2023-04-18T10:59:55.542Z,73.0254
2023-04-18T11:00:56.805Z,71.6094
2023-04-18T11:01:57.988Z,70.8261
2023-04-18T11:02:59.209Z,69.9911
2023-04-18T11:04:00.517Z,68.6411
2023-04-18T11:05:01.884Z,68.8714
2023-04-18T11:06:03.003Z,70.5864
2023-04-18T11:07:04.734Z,70.8099
2023-04-18T11:08:05.824Z,70.3804
2023-04-18T11:09:06.953Z,70.5165
2023-04-18T11:10:08.007Z,70.8133
2023-04-18T11:11:09.143Z,70.3927
2023-04-18T11:12:10.263Z,71.5383
2023-04-18T11:13:11.379Z,71.7041
2023-04-18T11:14:12.602Z,71.5236
2023-04-18T11:15:14.523Z,71.8651
2023-04-18T11:16:15.926Z,72.3268
2023-04-18T11:17:17.060Z,72.1705
2023-04-18T11:18:18.183Z,71.7177
2023-04-18T11:19:19.326Z,71.3391
2023-04-18T11:20:20.418Z,70.2840
2023-04-18T11:21:21.567Z,70.4806
2023-04-18T11:22:22.687Z,70.0428
2023-04-18T11:23:23.839Z,70.6241
2023-04-18T11:24:24.937Z,70.6290
2023-04-18T11:25:26.078Z,70.1908
2023-04-18T11:26:27.218Z,70.4455
2023-04-18T11:27:28.345Z,70.2865
2023-04-18T11:28:29.460Z,70.9019
2023-04-18T11:29:30.574Z,71.2964
2023-04-18T11:30:31.927Z,71.3517
2023-04-18T11:31:33.060Z,71.3361
2023-04-18T11:32:34.589Z,71.7104
2023-04-18T11:33:35.786Z,71.8935
2023-04-18T11:34:36.852Z,71.5466
2023-04-18T11:35:37.997Z,71.2338
2023-04-18T11:36:39.155Z,70.8630
2023-04-18T11:37:40.326Z,70.6722
2023-04-18T11:38:41.714Z,70.6323
2023-04-18T11:39:42.906Z,70.6109
2023-04-18T11:40:44.072Z,71.2760
2023-04-18T11:41:45.262Z,71.5308
2023-04-18T11:42:46.414Z,71.5977
2023-04-18T11:43:47.578Z,70.6221
2023-04-18T11:44:48.698Z,70.2450
2023-04-18T11:45:49.939Z,70.3774
2023-04-18T11:46:51.146Z,69.6495
2023-04-18T11:47:52.349Z,69.0605
2023-04-18T11:48:53.496Z,69.4879
2023-04-18T11:49:56.907Z,67.7572
2023-04-18T11:50:55.603Z,66.8653
2023-04-18T11:51:56.744Z,66.8340
2023-04-18T11:52:57.884Z,66.5812
2023-04-18T11:53:59.031Z,66.8131
2023-04-18T11:55:00.182Z,66.7117
2023-04-18T11:56:01.266Z,65.3300
2023-04-18T11:57:02.378Z,63.4587
2023-04-18T11:58:03.512Z,62.0819
2023-04-18T11:59:04.631Z,63.4151
2023-04-18T12:00:05.746Z,64.2739
2023-04-18T12:01:06.845Z,65.5214
2023-04-18T12:02:16.034Z,67.0944
2023-04-18T12:03:11.771Z,68.3682
2023-04-18T12:04:12.141Z,67.4259
2023-04-18T12:05:13.918Z,66.3212
2023-04-18T12:06:15.510Z,64.3462
2023-04-18T12:07:16.587Z,63.7306
2023-04-18T12:08:17.730Z,63.2094
2023-04-18T12:09:18.833Z,62.4897
2023-04-18T12:10:19.928Z,62.3352
2023-04-18T12:11:21.031Z,60.5248
2023-04-18T12:12:22.182Z,61.7505
2023-04-18T12:13:23.247Z,61.5386
2023-04-18T12:14:24.392Z,62.0216
2023-04-18T12:15:25.634Z,62.7586
2023-04-18T12:16:26.896Z,63.7510
2023-04-18T12:17:28.019Z,63.9173
2023-04-18T12:18:29.163Z,63.3789
2023-04-18T12:19:30.309Z,63.5118